createdAt,value
2022-11-08T00:01:19.647Z,5.10
2022-11-08T00:03:47.056Z,5.00
2022-11-08T00:06:14.470Z,5.20
2022-11-08T00:08:41.948Z,5.00
2022-11-08T00:11:09.388Z,5.10
2022-11-08T00:13:36.864Z,4.80
2022-11-08T00:16:04.331Z,4.80
2022-11-08T00:18:31.777Z,4.90
2022-11-08T00:21:03.441Z,5.00
2022-11-08T00:23:30.987Z,5.10
2022-11-08T00:25:58.431Z,5.10
2022-11-08T00:28:25.985Z,5.00
2022-11-08T00:30:53.367Z,4.90
2022-11-08T00:33:20.762Z,4.90
2022-11-08T00:35:48.094Z,4.90
2022-11-08T00:38:15.885Z,5.00
2022-11-08T00:40:43.047Z,5.00
2022-11-08T00:43:09.820Z,4.90
2022-11-08T00:45:36.655Z,4.90
2022-11-08T00:48:03.559Z,4.90
2022-11-08T00:50:30.493Z,4.70
2022-11-08T00:52:57.329Z,4.60
2022-11-08T00:55:24.171Z,4.70
2022-11-08T00:57:59.469Z,4.60
2022-11-08T01:00:27.880Z,4.70
2022-11-08T01:02:54.772Z,4.80
2022-11-08T01:05:21.593Z,4.80
2022-11-08T01:07:48.385Z,4.80
2022-11-08T01:10:15.201Z,4.90
2022-11-08T01:12:42.038Z,4.90
2022-11-08T01:15:09.198Z,5.00
2022-11-08T01:17:36.122Z,4.90
2022-11-08T01:20:03.080Z,5.00
2022-11-08T01:22:29.876Z,5.00
2022-11-08T01:24:56.715Z,5.00
2022-11-08T01:27:23.559Z,4.90
2022-11-08T01:29:50.416Z,4.90
2022-11-08T01:32:17.320Z,5.00
2022-11-08T01:34:44.164Z,4.90
2022-11-08T01:37:11.111Z,5.00
2022-11-08T01:39:37.938Z,5.00
2022-11-08T01:42:04.851Z,5.00
2022-11-08T01:44:31.742Z,4.90
2022-11-08T01:46:58.752Z,5.00
2022-11-08T01:49:35.880Z,4.80
2022-11-08T01:52:15.022Z,4.80
2022-11-08T01:54:50.758Z,4.90
2022-11-08T01:57:33.572Z,4.90
2022-11-08T02:00:05.322Z,4.80
2022-11-08T02:02:36.936Z,4.70
2022-11-08T02:05:07.714Z,4.60
2022-11-08T02:07:34.903Z,4.80
2022-11-08T02:10:03.484Z,4.80
2022-11-08T02:12:30.495Z,4.80
2022-11-08T02:14:57.344Z,4.80
2022-11-08T02:17:24.192Z,4.60
2022-11-08T02:19:51.274Z,4.80
2022-11-08T02:22:38.805Z,4.60
2022-11-08T02:25:06.790Z,4.70
2022-11-08T02:27:33.563Z,4.70
2022-11-08T02:30:00.369Z,4.80
2022-11-08T02:32:27.264Z,4.80
2022-11-08T02:34:59.153Z,4.80
2022-11-08T02:37:27.197Z,4.70
2022-11-08T02:39:54.046Z,4.60
2022-11-08T02:42:21.026Z,4.70
2022-11-08T02:44:48.290Z,4.70
2022-11-08T02:47:15.552Z,4.70
2022-11-08T02:49:42.573Z,4.70
2022-11-08T02:52:09.418Z,4.70
2022-11-08T02:54:36.201Z,4.60
2022-11-08T02:57:03.201Z,4.60
2022-11-08T02:59:29.985Z,4.70
2022-11-08T03:01:56.805Z,4.50
2022-11-08T03:04:23.749Z,4.60
2022-11-08T03:06:50.890Z,4.60
2022-11-08T03:09:17.752Z,4.50
2022-11-08T03:11:44.716Z,4.50
2022-11-08T03:14:11.555Z,4.60
2022-11-08T03:16:38.331Z,4.50
2022-11-08T03:19:05.190Z,4.60
2022-11-08T03:21:32.039Z,4.80
2022-11-08T03:23:58.845Z,4.70
2022-11-08T03:26:25.648Z,4.70
2022-11-08T03:28:52.519Z,4.50
2022-11-08T03:31:19.301Z,4.50
2022-11-08T03:33:46.181Z,4.50
2022-11-08T03:36:12.997Z,4.40
2022-11-08T03:38:39.832Z,4.50
2022-11-08T03:41:06.866Z,4.50
2022-11-08T03:43:33.681Z,4.30
2022-11-08T03:46:00.462Z,4.30
2022-11-08T03:48:27.235Z,4.30
2022-11-08T03:50:54.025Z,4.30
2022-11-08T03:53:20.821Z,4.10
2022-11-08T03:55:47.698Z,4.20
2022-11-08T03:58:15.896Z,4.10
2022-11-08T04:00:42.943Z,4.10
2022-11-08T04:03:11.319Z,4.00
2022-11-08T04:05:38.063Z,4.00
2022-11-08T04:08:05.527Z,3.90
2022-11-08T04:10:32.685Z,3.90
2022-11-08T04:13:00.750Z,3.90
2022-11-08T04:15:28.890Z,3.80
2022-11-08T04:17:56.014Z,3.80
2022-11-08T04:20:22.786Z,3.90
2022-11-08T04:22:49.599Z,3.90
2022-11-08T04:25:16.534Z,4.00
2022-11-08T04:27:43.264Z,3.80
2022-11-08T04:30:10.639Z,3.80
2022-11-08T04:32:37.498Z,3.80
2022-11-08T04:35:04.383Z,3.80
2022-11-08T04:37:31.179Z,3.90
2022-11-08T04:39:57.981Z,3.80
2022-11-08T04:42:24.792Z,3.90
2022-11-08T04:44:51.661Z,3.90
2022-11-08T04:47:18.508Z,3.90
2022-11-08T04:49:45.279Z,3.80
2022-11-08T04:52:14.235Z,3.60
2022-11-08T04:54:40.968Z,3.60
2022-11-08T04:57:07.712Z,3.50
2022-11-08T04:59:34.469Z,3.50
2022-11-08T05:02:01.631Z,3.60
2022-11-08T05:04:28.500Z,3.80
2022-11-08T05:06:55.439Z,3.80
2022-11-08T05:09:22.359Z,3.80
2022-11-08T05:11:49.392Z,3.50
2022-11-08T05:14:16.380Z,3.40
2022-11-08T05:16:43.167Z,3.40
2022-11-08T05:19:13.143Z,3.30
2022-11-08T05:21:40.216Z,3.30
2022-11-08T05:24:10.077Z,3.10
2022-11-08T05:26:41.622Z,2.90
2022-11-08T05:29:08.826Z,2.70
2022-11-08T05:31:35.604Z,2.70
2022-11-08T05:34:02.491Z,2.70
2022-11-08T05:36:29.457Z,2.80
2022-11-08T05:38:56.655Z,2.90
2022-11-08T05:41:25.166Z,2.70
2022-11-08T05:43:54.651Z,2.60
2022-11-08T05:46:23.026Z,2.60
2022-11-08T05:48:50.293Z,2.60
2022-11-08T05:51:19.305Z,2.60
2022-11-08T05:53:46.709Z,2.60
2022-11-08T05:56:13.646Z,2.70
2022-11-08T05:58:40.640Z,2.70
2022-11-08T06:01:10.826Z,2.80
2022-11-08T06:03:38.087Z,2.70
2022-11-08T06:06:10.687Z,2.90
2022-11-08T06:08:37.762Z,2.90
2022-11-08T06:11:10.119Z,2.90
2022-11-08T06:13:37.293Z,2.80
2022-11-08T06:16:06.978Z,2.80
2022-11-08T06:18:34.549Z,3.00
2022-11-08T06:21:02.911Z,3.20
2022-11-08T06:23:29.939Z,3.20
2022-11-08T06:25:57.025Z,3.10
2022-11-08T06:28:23.983Z,3.00
2022-11-08T06:30:51.410Z,3.00
2022-11-08T06:33:19.666Z,3.10
2022-11-08T06:35:47.409Z,3.20
2022-11-08T06:38:14.243Z,3.30
2022-11-08T06:40:40.999Z,3.40
2022-11-08T06:43:07.822Z,3.30
2022-11-08T06:45:36.554Z,3.40
2022-11-08T06:48:05.092Z,3.50
2022-11-08T06:50:33.065Z,3.40
2022-11-08T06:53:06.061Z,3.50
2022-11-08T06:55:33.551Z,3.50
2022-11-08T06:58:00.378Z,3.60
2022-11-08T07:00:27.869Z,3.70
2022-11-08T07:02:56.385Z,3.60
2022-11-08T07:05:23.899Z,3.80
2022-11-08T07:07:50.901Z,3.90
2022-11-08T07:10:22.894Z,3.90
2022-11-08T07:12:57.991Z,4.00
2022-11-08T07:15:24.795Z,4.00
2022-11-08T07:17:51.755Z,4.20
2022-11-08T07:20:18.607Z,4.20
2022-11-08T07:22:45.436Z,4.20
2022-11-08T07:25:12.358Z,4.30
2022-11-08T07:27:39.219Z,4.40
2022-11-08T07:30:06.659Z,4.40
2022-11-08T07:32:33.837Z,4.60
2022-11-08T07:35:00.688Z,4.60
2022-11-08T07:37:27.492Z,4.70
2022-11-08T07:39:54.240Z,4.80
2022-11-08T07:42:21.016Z,4.90
2022-11-08T07:45:01.634Z,4.90
2022-11-08T07:47:28.436Z,5.00
2022-11-08T07:49:55.196Z,5.10
2022-11-08T07:52:21.942Z,5.30
2022-11-08T07:54:48.715Z,5.20
2022-11-08T07:57:15.570Z,5.30
2022-11-08T07:59:42.391Z,5.20
2022-11-08T08:02:13.232Z,5.20
2022-11-08T08:04:40.153Z,5.30
2022-11-08T08:07:07.344Z,5.30
2022-11-08T08:09:34.204Z,5.40
2022-11-08T08:12:01.516Z,5.50
2022-11-08T08:14:28.378Z,5.50
2022-11-08T08:16:55.450Z,5.50
2022-11-08T08:19:22.187Z,5.60
2022-11-08T08:21:48.955Z,5.70
2022-11-08T08:24:15.902Z,5.80
2022-11-08T08:26:43.294Z,5.70
2022-11-08T08:29:10.014Z,5.80
2022-11-08T08:31:36.804Z,5.80
2022-11-08T08:34:03.745Z,5.90
2022-11-08T08:36:30.507Z,6.00
2022-11-08T08:38:57.308Z,6.00
2022-11-08T08:41:24.092Z,6.00
2022-11-08T08:43:50.992Z,6.00
2022-11-08T08:46:17.735Z,5.90
2022-11-08T08:48:44.915Z,6.00
2022-11-08T08:51:11.781Z,5.90
2022-11-08T08:53:38.574Z,5.90
2022-11-08T08:56:07.041Z,6.00
2022-11-08T08:58:34.036Z,5.90
2022-11-08T09:03:52.643Z,6.00
2022-11-08T09:06:19.474Z,6.00
2022-11-08T09:08:46.230Z,5.90
2022-11-08T09:11:13.045Z,6.00
2022-11-08T09:13:39.818Z,6.00
2022-11-08T09:16:06.804Z,5.90
2022-11-08T09:18:34.009Z,5.80
2022-11-08T09:21:00.941Z,6.10
2022-11-08T09:23:27.753Z,6.00
2022-11-08T09:26:04.320Z,6.00
2022-11-08T09:28:33.108Z,5.90
2022-11-08T09:31:05.459Z,6.00
2022-11-08T09:33:32.800Z,6.10
2022-11-08T09:36:01.007Z,6.20
2022-11-08T09:38:28.153Z,6.20
2022-11-08T09:41:13.918Z,6.30
2022-11-08T09:43:46.754Z,6.20
2022-11-08T09:46:26.272Z,6.20
2022-11-08T09:48:55.706Z,6.10
2022-11-08T09:51:24.529Z,6.20
2022-11-08T09:53:57.523Z,6.30
2022-11-08T09:56:32.154Z,6.30
2022-11-08T09:59:34.163Z,6.20
2022-11-08T10:02:01.089Z,6.20
2022-11-08T10:04:31.557Z,6.40
2022-11-08T10:07:32.484Z,6.50
2022-11-08T10:10:20.578Z,6.40
2022-11-08T10:13:05.507Z,6.60
2022-11-08T10:16:14.570Z,6.80
2022-11-08T10:18:41.365Z,6.90
2022-11-08T10:21:42.974Z,6.90
2022-11-08T10:24:16.809Z,6.80
2022-11-08T10:26:44.500Z,6.80
2022-11-08T10:29:22.984Z,6.70
2022-11-08T10:32:11.085Z,6.70
2022-11-08T10:34:52.074Z,6.70
2022-11-08T10:37:19.977Z,7.00
2022-11-08T10:40:20.102Z,6.70
2022-11-08T10:42:52.922Z,7.00
2022-11-08T10:45:19.710Z,7.40
2022-11-08T10:47:47.208Z,7.40
2022-11-08T10:50:21.194Z,7.60
2022-11-08T10:52:59.774Z,7.60
2022-11-08T10:55:28.427Z,7.70
2022-11-08T10:57:55.390Z,7.60
2022-11-08T11:00:22.232Z,7.60
2022-11-08T11:02:58.861Z,7.60
2022-11-08T11:05:31.261Z,7.60
2022-11-08T11:08:02.882Z,7.70
2022-11-08T11:10:38.539Z,7.90
2022-11-08T11:13:24.911Z,7.90
2022-11-08T11:15:51.699Z,8.00
2022-11-08T11:18:48.643Z,8.20
2022-11-08T11:21:18.878Z,7.90
2022-11-08T11:23:54.619Z,8.00
2022-11-08T11:26:30.652Z,7.90
2022-11-08T11:29:06.563Z,7.90
2022-11-08T11:31:35.972Z,7.80
2022-11-08T11:34:18.189Z,8.00
2022-11-08T11:36:52.332Z,8.20
2022-11-08T11:39:26.545Z,8.10
2022-11-08T11:42:17.726Z,8.10
2022-11-08T11:45:06.220Z,8.20
2022-11-08T11:48:11.453Z,8.40
2022-11-08T11:50:41.349Z,8.40
2022-11-08T11:53:15.804Z,8.50
2022-11-08T11:55:51.670Z,8.40
2022-11-08T11:58:59.957Z,8.50
2022-11-08T12:01:48.062Z,8.50
2022-11-08T12:04:51.761Z,8.60
2022-11-08T12:07:26.111Z,8.70
2022-11-08T12:10:14.863Z,8.70
2022-11-08T12:13:15.404Z,8.80
2022-11-08T12:16:09.518Z,8.80
2022-11-08T12:18:53.637Z,8.80
2022-11-08T12:21:48.346Z,8.70
2022-11-08T12:24:27.057Z,8.70
2022-11-08T12:27:00.638Z,8.80
2022-11-08T12:29:42.545Z,8.90
2022-11-08T12:32:26.283Z,8.90
2022-11-08T12:35:16.402Z,9.10
2022-11-08T12:38:07.076Z,9.10
2022-11-08T12:40:36.663Z,9.40
2022-11-08T12:43:34.213Z,9.30
2022-11-08T12:46:15.543Z,9.20
2022-11-08T12:49:26.282Z,9.30
2022-11-08T12:52:08.884Z,9.60
2022-11-08T12:54:38.819Z,9.70
2022-11-08T12:57:17.480Z,9.50
2022-11-08T12:59:59.362Z,9.50
2022-11-08T13:02:33.960Z,9.40
2022-11-08T13:05:22.402Z,9.40
2022-11-08T13:08:17.646Z,9.50
2022-11-08T13:11:01.092Z,9.40
2022-11-08T13:13:56.828Z,9.40
2022-11-08T13:16:29.525Z,9.50
2022-11-08T13:18:58.884Z,9.50
2022-11-08T13:21:28.471Z,9.50
2022-11-08T13:24:43.269Z,9.50
2022-11-08T13:27:51.530Z,9.50
2022-11-08T13:30:35.767Z,9.50
2022-11-08T13:33:18.861Z,9.50
2022-11-08T13:36:00.237Z,9.50
2022-11-08T13:38:33.696Z,9.70
2022-11-08T13:41:23.117Z,9.60
2022-11-08T13:43:53.179Z,9.50
2022-11-08T13:46:22.942Z,9.40
2022-11-08T13:48:58.644Z,9.50
2022-11-08T13:51:46.603Z,9.30
2022-11-08T13:54:22.670Z,9.20
2022-11-08T13:57:02.057Z,9.20
2022-11-08T13:59:32.267Z,9.10
2022-11-08T14:02:02.930Z,9.10
2022-11-08T14:04:41.366Z,9.10
2022-11-08T14:07:11.176Z,9.00
2022-11-08T14:09:40.992Z,9.00
2022-11-08T14:12:31.680Z,9.00
2022-11-08T14:15:17.157Z,9.00
2022-11-08T14:17:54.041Z,9.00
2022-11-08T14:20:33.997Z,9.10
2022-11-08T14:23:15.304Z,9.10
2022-11-08T14:25:46.488Z,9.20
2022-11-08T14:28:29.642Z,9.20
2022-11-08T14:30:58.274Z,9.20
2022-11-08T14:33:27.683Z,9.20
2022-11-08T14:36:07.075Z,9.20
2022-11-08T14:38:47.487Z,9.40
2022-11-08T14:41:25.002Z,9.20
2022-11-08T14:43:54.004Z,9.30
2022-11-08T14:46:34.127Z,9.30
2022-11-08T14:49:14.384Z,9.30
2022-11-08T14:51:42.295Z,9.30
2022-11-08T14:54:21.559Z,9.30
2022-11-08T14:56:49.125Z,9.30
2022-11-08T14:59:16.315Z,9.20
2022-11-08T15:01:49.211Z,9.20
2022-11-08T15:04:22.566Z,9.20
2022-11-08T15:06:55.754Z,9.10
2022-11-08T15:09:27.683Z,9.10
2022-11-08T15:11:58.244Z,9.10
2022-11-08T15:14:28.571Z,9.10
2022-11-08T15:17:01.737Z,9.00
2022-11-08T15:19:40.262Z,9.00
2022-11-08T15:22:29.660Z,9.00
2022-11-08T15:25:00.494Z,9.00
2022-11-08T15:27:27.795Z,9.00
2022-11-08T15:30:09.645Z,9.00
2022-11-08T15:32:39.259Z,9.00
2022-11-08T15:35:18.281Z,8.90
2022-11-08T15:37:45.392Z,8.90
2022-11-08T15:40:30.282Z,9.00
2022-11-08T15:42:57.612Z,9.00
2022-11-08T15:45:28.563Z,8.90
2022-11-08T15:48:22.433Z,8.90
2022-11-08T15:50:49.923Z,8.80
2022-11-08T15:53:16.966Z,8.90
2022-11-08T15:56:05.809Z,8.90
2022-11-08T15:58:35.739Z,8.90
2022-11-08T16:01:04.842Z,8.80
2022-11-08T16:03:32.486Z,8.90
2022-11-08T16:06:00.148Z,8.90
2022-11-08T16:08:27.740Z,8.80
2022-11-08T16:11:00.352Z,8.80
2022-11-08T16:13:39.223Z,8.80
2022-11-08T16:16:18.131Z,8.70
2022-11-08T16:18:45.712Z,8.70
2022-11-08T16:21:13.952Z,8.60
2022-11-08T16:23:41.484Z,8.60
2022-11-08T16:26:15.163Z,8.50
2022-11-08T16:28:42.330Z,8.40
2022-11-08T16:31:12.932Z,8.40
2022-11-08T16:33:40.790Z,8.30
2022-11-08T16:36:20.119Z,8.20
2022-11-08T16:38:56.605Z,8.20
2022-11-08T16:41:27.597Z,8.20
2022-11-08T16:43:55.001Z,8.20
2022-11-08T16:46:24.674Z,8.10
2022-11-08T16:51:38.144Z,8.00
2022-11-08T16:54:17.909Z,8.00
2022-11-08T16:56:48.081Z,7.90
2022-11-08T16:59:15.571Z,7.90
2022-11-08T17:01:43.837Z,7.80
2022-11-08T17:04:11.995Z,7.80
2022-11-08T17:06:40.188Z,7.80
2022-11-08T17:09:07.380Z,7.80
2022-11-08T17:11:34.260Z,7.80
2022-11-08T17:14:01.671Z,7.80
2022-11-08T17:16:28.992Z,7.70
2022-11-08T17:18:56.311Z,7.70
2022-11-08T17:21:54.118Z,7.60
2022-11-08T17:24:13.564Z,7.60
2022-11-08T17:26:43.123Z,7.70
2022-11-08T17:29:10.123Z,7.60
2022-11-08T17:31:36.855Z,7.60
2022-11-08T17:34:04.311Z,7.60
2022-11-08T17:36:31.558Z,7.60
2022-11-08T17:38:59.446Z,7.60
2022-11-08T17:41:26.543Z,7.60
2022-11-08T17:43:57.423Z,7.60
2022-11-08T17:46:24.843Z,7.50
2022-11-08T17:48:52.083Z,7.40
2022-11-08T17:51:19.391Z,7.50
2022-11-08T17:53:46.696Z,7.60
2022-11-08T17:56:13.999Z,7.50
2022-11-08T17:58:42.717Z,7.40
2022-11-08T18:01:09.740Z,7.50
2022-11-08T18:03:40.141Z,7.50
2022-11-08T18:06:09.154Z,7.40
2022-11-08T18:08:36.933Z,7.50
2022-11-08T18:11:06.349Z,7.50
2022-11-08T18:13:33.926Z,7.50
2022-11-08T18:16:08.819Z,7.50
2022-11-08T18:18:36.657Z,7.50
2022-11-08T18:21:04.685Z,7.40
2022-11-08T18:23:32.399Z,7.50
2022-11-08T18:25:59.598Z,7.50
2022-11-08T18:28:27.067Z,7.50
2022-11-08T18:30:54.339Z,7.40
2022-11-08T18:33:22.042Z,7.40
2022-11-08T18:35:49.620Z,7.40
2022-11-08T18:38:17.044Z,7.40
2022-11-08T18:40:45.270Z,7.50
2022-11-08T18:43:12.133Z,7.40
2022-11-08T18:45:39.384Z,7.40
2022-11-08T18:48:06.867Z,7.40
2022-11-08T18:50:35.248Z,7.40
2022-11-08T18:53:04.084Z,7.40
2022-11-08T18:55:32.185Z,7.40
2022-11-08T18:58:02.384Z,7.40
2022-11-08T19:00:29.768Z,7.30
2022-11-08T19:03:06.295Z,7.30
2022-11-08T19:05:33.671Z,7.40
2022-11-08T19:08:01.356Z,7.40
2022-11-08T19:10:30.025Z,7.30
2022-11-08T19:12:57.566Z,7.30
2022-11-08T19:15:24.921Z,7.30
2022-11-08T19:17:52.416Z,7.40
2022-11-08T19:20:23.740Z,7.30
2022-11-08T19:22:54.346Z,7.40
2022-11-08T19:25:21.702Z,7.40
2022-11-08T19:27:52.362Z,7.40
2022-11-08T19:30:20.060Z,7.40
2022-11-08T19:32:47.567Z,7.40
2022-11-08T19:35:15.549Z,7.40
2022-11-08T19:37:43.478Z,7.40
2022-11-08T19:40:11.532Z,7.30
2022-11-08T19:42:39.080Z,7.30
2022-11-08T19:45:06.484Z,7.40
2022-11-08T19:47:34.269Z,7.30
2022-11-08T19:50:02.162Z,7.30
2022-11-08T19:52:29.772Z,7.40
2022-11-08T19:54:57.248Z,7.40
2022-11-08T19:57:26.854Z,7.30
2022-11-08T19:59:54.668Z,7.30
2022-11-08T20:02:23.156Z,7.20
2022-11-08T20:04:50.887Z,7.30
2022-11-08T20:07:18.794Z,7.30
2022-11-08T20:09:46.479Z,7.30
2022-11-08T20:12:13.935Z,7.30
2022-11-08T20:14:42.356Z,7.20
2022-11-08T20:17:09.857Z,7.10
2022-11-08T20:19:37.025Z,7.20
2022-11-08T20:22:04.888Z,7.20
2022-11-08T20:24:35.392Z,7.20
2022-11-08T20:27:02.929Z,7.20
2022-11-08T20:29:30.733Z,7.20
2022-11-08T20:32:00.179Z,7.20
2022-11-08T20:34:29.759Z,7.20
2022-11-08T20:36:57.600Z,7.30
2022-11-08T20:39:25.271Z,7.20
2022-11-08T20:41:53.656Z,7.20
2022-11-08T20:44:21.551Z,7.20
2022-11-08T20:46:52.348Z,7.20
2022-11-08T20:49:20.208Z,7.20
2022-11-08T20:51:48.027Z,7.10
2022-11-08T20:54:15.531Z,7.20
2022-11-08T20:56:43.543Z,7.10
2022-11-08T20:59:11.461Z,7.10
2022-11-08T21:01:38.937Z,7.20
2022-11-08T21:04:06.878Z,7.20
2022-11-08T21:06:36.243Z,7.20
2022-11-08T21:09:32.503Z,7.20
2022-11-08T21:11:53.699Z,7.20
2022-11-08T21:14:22.164Z,7.20
2022-11-08T21:19:36.998Z,7.20
2022-11-08T21:22:05.260Z,7.10
2022-11-08T21:24:32.146Z,7.10
2022-11-08T21:26:59.610Z,7.10
2022-11-08T21:29:26.581Z,7.10
2022-11-08T21:31:53.893Z,7.10
2022-11-08T21:34:21.275Z,7.10
2022-11-08T21:36:49.133Z,7.00
2022-11-08T21:39:17.021Z,7.10
2022-11-08T21:41:43.934Z,7.10
2022-11-08T21:44:11.188Z,7.10
2022-11-08T21:46:38.096Z,7.10
2022-11-08T21:49:05.382Z,7.20
2022-11-08T21:51:32.633Z,7.10
2022-11-08T21:53:59.585Z,7.20
2022-11-08T21:56:30.306Z,7.20
2022-11-08T21:58:57.486Z,7.20
2022-11-08T22:01:29.844Z,7.20
2022-11-08T22:03:58.716Z,7.20
2022-11-08T22:06:26.259Z,7.30
2022-11-08T22:08:53.603Z,7.30
2022-11-08T22:11:20.455Z,7.20
2022-11-08T22:13:47.378Z,7.10
2022-11-08T22:16:14.364Z,7.10
2022-11-08T22:21:28.266Z,7.20
2022-11-08T22:23:55.160Z,7.20
2022-11-08T22:26:22.033Z,7.30
2022-11-08T22:28:48.973Z,7.30
2022-11-08T22:31:16.128Z,7.30
2022-11-08T22:33:43.048Z,7.30
2022-11-08T22:36:10.403Z,7.20
2022-11-08T22:38:37.508Z,7.30
2022-11-08T22:41:04.568Z,7.30
2022-11-08T22:43:32.785Z,7.30
2022-11-08T22:46:00.221Z,7.20
2022-11-08T22:48:27.498Z,7.20
2022-11-08T22:50:54.551Z,7.30
2022-11-08T22:53:21.765Z,7.30
2022-11-08T22:55:49.262Z,7.30
2022-11-08T22:58:16.246Z,7.30
2022-11-08T23:00:43.355Z,7.30
2022-11-08T23:03:10.536Z,7.30
2022-11-08T23:05:37.726Z,7.40
2022-11-08T23:08:09.123Z,7.40
2022-11-08T23:10:36.654Z,7.20
2022-11-08T23:13:03.840Z,7.40
2022-11-08T23:15:35.064Z,7.30
2022-11-08T23:18:01.930Z,7.30
2022-11-08T23:20:28.790Z,7.40
2022-11-08T23:22:55.907Z,7.30
2022-11-08T23:25:22.760Z,7.30
2022-11-08T23:27:49.666Z,7.30
2022-11-08T23:30:18.117Z,7.40
2022-11-08T23:32:48.222Z,7.40
2022-11-08T23:35:16.309Z,7.50
2022-11-08T23:37:43.569Z,7.50
2022-11-08T23:40:12.803Z,7.50
2022-11-08T23:42:39.664Z,7.40
2022-11-08T23:45:07.097Z,7.50
2022-11-08T23:47:34.022Z,7.40
2022-11-08T23:50:00.897Z,7.50
2022-11-08T23:52:27.785Z,7.50
2022-11-08T23:54:54.654Z,7.50
2022-11-08T23:57:21.771Z,7.50
2022-11-08T23:59:48.670Z,7.50
